createdAt,value
2023-04-14T05:13:11.841Z,7.83
2023-04-14T05:15:40.172Z,8.87
2023-04-14T05:18:08.363Z,7.87
2023-04-14T05:20:36.937Z,7.37
2023-04-14T05:23:05.287Z,7.13
2023-04-14T05:25:33.417Z,11.67
2023-04-14T05:28:01.763Z,10.70
2023-04-14T05:30:31.574Z,9.67
2023-04-14T05:32:59.756Z,11.03
2023-04-14T05:35:28.108Z,9.27
2023-04-14T05:37:56.301Z,7.90
2023-04-14T05:40:24.437Z,13.93
2023-04-14T05:42:53.041Z,9.67
2023-04-14T05:45:22.298Z,10.87
2023-04-14T05:47:51.791Z,9.77
2023-04-14T05:50:19.942Z,9.93
2023-04-14T05:52:48.034Z,12.43
2023-04-14T05:55:16.654Z,18.00
2023-04-14T05:57:44.948Z,13.40
2023-04-14T06:00:14.491Z,10.67
2023-04-14T06:02:44.359Z,8.60
2023-04-14T06:05:14.031Z,11.47
2023-04-14T06:07:42.188Z,11.67
2023-04-14T06:10:11.930Z,8.73
2023-04-14T06:12:40.375Z,13.00
2023-04-14T06:15:09.246Z,9.17
2023-04-14T06:17:37.407Z,9.30
2023-04-14T06:20:06.343Z,11.07
2023-04-14T06:22:35.783Z,11.57
2023-04-14T06:25:03.921Z,12.07
2023-04-14T06:27:32.586Z,13.57
2023-04-14T06:30:01.882Z,15.03
2023-04-14T06:32:30.046Z,10.43
2023-04-14T06:34:58.206Z,9.20
2023-04-14T06:37:26.672Z,12.77
2023-04-14T06:39:56.345Z,9.10
2023-04-14T06:42:24.567Z,11.90
2023-04-14T06:44:52.743Z,12.50
2023-04-14T06:47:21.832Z,8.93
2023-04-14T06:49:50.113Z,10.07
2023-04-14T06:52:18.347Z,9.40
2023-04-14T06:54:46.999Z,8.90
2023-04-14T06:57:16.812Z,10.87
2023-04-14T06:59:44.901Z,8.60
2023-04-14T07:02:13.680Z,9.40
2023-04-14T07:04:41.994Z,7.63
2023-04-14T07:07:10.239Z,11.50
2023-04-14T07:09:38.438Z,13.33
2023-04-14T07:12:07.285Z,10.33
2023-04-14T07:14:37.975Z,12.43
2023-04-14T07:17:06.458Z,13.40
2023-04-14T07:19:34.588Z,13.23
2023-04-14T07:22:03.339Z,15.60
2023-04-14T07:24:31.463Z,14.20
2023-04-14T07:26:59.537Z,16.77
2023-04-14T07:29:29.411Z,10.63
2023-04-14T07:31:59.697Z,11.27
2023-04-14T07:34:27.934Z,11.70
2023-04-14T07:36:56.505Z,12.13
2023-04-14T07:39:24.654Z,11.93
2023-04-14T07:41:52.738Z,18.47
2023-04-14T07:44:21.592Z,18.97
2023-04-14T07:46:49.667Z,14.40
2023-04-14T07:49:19.350Z,9.07
2023-04-14T07:51:47.635Z,11.00
2023-04-14T07:54:16.898Z,12.07
2023-04-14T07:56:45.149Z,16.30
2023-04-14T07:59:13.294Z,9.80
2023-04-14T08:01:41.763Z,9.80
2023-04-14T08:04:10.238Z,10.63
2023-04-14T08:06:39.998Z,15.23
2023-04-14T08:09:08.469Z,10.20
2023-04-14T08:11:36.624Z,9.80
2023-04-14T08:14:05.523Z,7.80
2023-04-14T08:16:36.941Z,10.57
2023-04-14T08:19:06.294Z,14.47
2023-04-14T08:21:34.452Z,12.40
2023-04-14T08:24:04.033Z,13.33
2023-04-14T08:26:32.257Z,12.20
2023-04-14T08:29:00.765Z,15.30
2023-04-14T08:31:28.923Z,14.00
2023-04-14T08:33:57.325Z,12.67
2023-04-14T08:36:27.251Z,16.20
2023-04-14T08:38:55.487Z,11.83
2023-04-14T08:41:25.527Z,16.40
2023-04-14T08:43:53.655Z,11.07
2023-04-14T08:46:22.737Z,15.40
2023-04-14T08:48:52.430Z,15.50
2023-04-14T08:51:32.051Z,12.40
2023-04-14T08:54:02.130Z,11.10
2023-04-14T08:56:34.969Z,13.40
2023-04-14T08:59:03.331Z,17.67
2023-04-14T09:01:32.633Z,11.43
2023-04-14T09:04:04.092Z,14.13
2023-04-14T09:06:33.175Z,18.77
2023-04-14T09:09:03.993Z,10.90
2023-04-14T09:11:33.767Z,12.03
2023-04-14T09:14:02.629Z,9.57
2023-04-14T09:16:32.014Z,5.67
2023-04-14T09:19:07.154Z,10.17
2023-04-14T09:21:53.958Z,10.90
2023-04-14T09:24:31.009Z,7.53
2023-04-14T09:27:03.763Z,9.03
2023-04-14T09:29:32.040Z,17.60
2023-04-14T09:32:00.560Z,13.37
2023-04-14T09:34:29.149Z,13.47
2023-04-14T09:37:05.727Z,15.10
2023-04-14T09:39:33.940Z,10.67
2023-04-14T09:42:04.930Z,10.23
2023-04-14T09:44:33.197Z,16.57
2023-04-14T09:47:02.415Z,12.67
2023-04-14T09:49:31.135Z,13.10
2023-04-14T09:52:05.772Z,19.03
2023-04-14T09:54:34.091Z,13.60
2023-04-14T09:57:04.252Z,10.90
2023-04-14T09:59:34.355Z,11.33
2023-04-14T10:02:06.414Z,7.33
2023-04-14T10:04:38.143Z,8.27
2023-04-14T10:07:09.175Z,11.60
2023-04-14T10:09:40.848Z,11.50
2023-04-14T10:12:12.320Z,7.37
2023-04-14T10:14:41.536Z,8.57
2023-04-14T10:17:10.237Z,9.83
2023-04-14T10:19:39.270Z,5.63
2023-04-14T10:22:07.800Z,5.20
2023-04-14T10:24:37.120Z,9.20
2023-04-14T10:27:06.260Z,5.67
2023-04-14T10:29:36.090Z,5.40
2023-04-14T10:32:07.192Z,8.20
2023-04-14T10:34:36.501Z,4.03
2023-04-14T10:37:15.256Z,3.73
2023-04-14T10:39:44.118Z,8.03
2023-04-14T10:42:12.363Z,5.63
2023-04-14T10:44:41.884Z,7.33
2023-04-14T10:47:10.825Z,6.07
2023-04-14T10:49:40.815Z,5.00
2023-04-14T10:52:35.039Z,4.83
2023-04-14T10:55:08.926Z,7.77
2023-04-14T10:57:43.768Z,4.87
2023-04-14T11:00:26.622Z,7.57
2023-04-14T11:02:57.403Z,7.43
2023-04-14T11:05:25.882Z,6.10
2023-04-14T11:08:01.555Z,14.60
2023-04-14T11:10:33.211Z,2.10
2023-04-14T11:13:07.142Z,6.07
2023-04-14T11:15:50.770Z,5.20
2023-04-14T11:18:32.422Z,3.00
2023-04-14T11:21:05.549Z,6.43
2023-04-14T11:23:34.312Z,18.57
2023-04-14T11:26:03.430Z,4.30
2023-04-14T11:28:32.514Z,3.43
2023-04-14T11:31:03.463Z,7.17
2023-04-14T11:33:32.464Z,5.87
2023-04-14T11:36:01.049Z,4.67
2023-04-14T11:38:29.497Z,3.93
2023-04-14T11:40:57.701Z,3.47
2023-04-14T11:43:26.197Z,2.43
2023-04-14T11:45:56.068Z,5.67
2023-04-14T11:48:25.551Z,8.20
2023-04-14T11:50:53.718Z,4.57
2023-04-14T11:53:22.043Z,2.60
2023-04-14T11:55:51.977Z,2.80
2023-04-14T11:58:23.775Z,3.43
2023-04-14T12:00:53.646Z,2.83
2023-04-14T12:03:30.073Z,3.80
2023-04-14T12:06:00.709Z,4.87
2023-04-14T12:08:31.634Z,2.03
2023-04-14T12:10:59.885Z,2.53
2023-04-14T12:13:28.218Z,2.53
2023-04-14T12:15:56.861Z,4.37
2023-04-14T12:18:25.064Z,4.60
2023-04-14T12:20:56.301Z,3.73
2023-04-14T12:23:25.695Z,4.30
2023-04-14T12:25:53.827Z,4.90
2023-04-14T12:28:27.815Z,1.80
2023-04-14T12:30:59.263Z,5.63
2023-04-14T12:33:28.721Z,4.47
2023-04-14T12:36:04.789Z,7.47
2023-04-14T12:38:33.340Z,6.50
2023-04-14T12:41:02.018Z,2.13
2023-04-14T12:43:31.680Z,4.30
2023-04-14T12:46:00.541Z,4.03
2023-04-14T12:48:43.914Z,3.93
2023-04-14T12:51:14.927Z,4.23
2023-04-14T12:53:44.225Z,3.80
2023-04-14T12:56:14.284Z,3.50
2023-04-14T12:58:44.051Z,1.30
2023-04-14T13:01:13.361Z,2.93
2023-04-14T13:03:46.908Z,2.00
2023-04-14T13:06:18.251Z,1.63
2023-04-14T13:08:47.691Z,1.20
2023-04-14T13:11:17.322Z,3.17
2023-04-14T13:13:45.595Z,3.67
2023-04-14T13:16:16.740Z,4.13
2023-04-14T13:18:46.514Z,2.47
2023-04-14T13:21:16.443Z,2.73
2023-04-14T13:23:44.599Z,3.60
2023-04-14T13:44:44.065Z,4.97
2023-04-14T13:47:12.401Z,2.17
2023-04-14T13:49:40.523Z,1.13
2023-04-14T13:52:09.752Z,2.27
2023-04-14T13:54:37.815Z,9.13
2023-04-14T13:57:06.065Z,2.23
2023-04-14T13:59:34.483Z,2.43
2023-04-14T14:02:04.292Z,1.23
2023-04-14T14:04:35.856Z,2.63
2023-04-14T14:07:04.033Z,1.63
2023-04-14T14:09:32.269Z,3.63
2023-04-14T14:12:00.303Z,1.80
2023-04-14T14:14:28.373Z,5.73
2023-04-14T14:16:56.494Z,2.97
2023-04-14T14:19:26.065Z,2.10
2023-04-14T14:21:54.238Z,9.73
2023-04-14T14:24:22.331Z,2.17
2023-04-14T14:26:50.475Z,3.47
2023-04-14T14:29:18.540Z,5.67
2023-04-14T14:31:47.078Z,7.70
2023-04-14T14:34:16.026Z,2.90
2023-04-14T14:36:46.234Z,1.47
2023-04-14T14:39:14.465Z,1.40
2023-04-14T14:41:42.592Z,1.60
2023-04-14T14:44:10.859Z,4.20
2023-04-14T14:46:39.038Z,1.50
2023-04-14T14:49:08.118Z,2.20
2023-04-14T14:51:36.237Z,2.13
2023-04-14T14:54:10.137Z,1.47
2023-04-14T14:56:38.802Z,2.43
2023-04-14T14:59:08.448Z,1.03
2023-04-14T15:01:37.179Z,3.77
2023-04-14T15:04:06.515Z,1.60
2023-04-14T15:06:35.956Z,1.70
2023-04-14T15:09:06.936Z,3.07
2023-04-14T15:11:34.973Z,3.50
2023-04-14T15:14:03.435Z,2.33
2023-04-14T15:16:31.946Z,4.67
2023-04-14T15:19:00.482Z,2.00
2023-04-14T15:21:28.564Z,1.83
2023-04-14T15:23:56.793Z,2.33
2023-04-14T15:26:26.395Z,3.00
2023-04-14T15:28:55.382Z,1.30
2023-04-14T15:31:23.485Z,1.20
2023-04-14T15:33:51.584Z,2.40
2023-04-14T15:36:19.618Z,2.63
2023-04-14T15:38:49.998Z,1.97
2023-04-14T15:41:18.090Z,1.40
2023-04-14T15:43:47.600Z,3.20
2023-04-14T15:46:15.958Z,3.57
2023-04-14T15:48:44.058Z,1.73
2023-04-14T15:51:12.136Z,3.30
2023-04-14T15:53:40.280Z,3.13
2023-04-14T15:56:08.408Z,1.30
2023-04-14T15:58:36.912Z,7.57
2023-04-14T16:01:09.297Z,4.30
2023-04-14T16:03:38.175Z,2.83
2023-04-14T16:06:08.376Z,1.90
2023-04-14T16:08:36.461Z,1.67
2023-04-14T16:11:04.971Z,2.50
2023-04-14T16:13:33.154Z,3.57
2023-04-14T16:16:01.289Z,2.13
2023-04-14T16:18:30.777Z,3.57
2023-04-14T16:20:58.808Z,1.30
2023-04-14T16:23:28.877Z,1.97
2023-04-14T16:25:57.586Z,1.73
2023-04-14T16:28:28.283Z,4.67
2023-04-14T16:30:59.570Z,3.37
2023-04-14T16:33:27.796Z,2.13
2023-04-14T16:35:58.554Z,4.73
2023-04-14T16:38:27.080Z,3.70
2023-04-14T16:40:57.387Z,6.97
2023-04-14T16:43:28.299Z,2.93
2023-04-14T16:46:02.355Z,3.67
2023-04-14T16:48:30.753Z,2.00
2023-04-14T16:51:04.482Z,3.10
2023-04-14T16:53:32.879Z,3.07
2023-04-14T16:56:04.834Z,1.80
2023-04-14T16:58:32.901Z,1.63
2023-04-14T17:01:01.242Z,2.17
2023-04-14T17:03:29.642Z,2.07
2023-04-14T17:05:59.247Z,3.37
2023-04-14T17:08:27.310Z,2.23
2023-04-14T17:10:55.466Z,2.53
2023-04-14T17:13:23.499Z,2.17
2023-04-14T17:15:58.831Z,5.87
2023-04-14T17:18:34.023Z,6.07
2023-04-14T17:21:03.444Z,2.43
2023-04-14T17:23:31.818Z,1.97
2023-04-14T17:26:00.776Z,4.87
2023-04-14T17:28:28.802Z,4.30
2023-04-14T17:30:57.481Z,4.87
2023-04-14T17:33:27.336Z,4.17
2023-04-14T17:35:55.778Z,3.23
2023-04-14T17:38:25.181Z,2.83
2023-04-14T17:40:54.610Z,1.20
2023-04-14T18:00:04.360Z,2.47
2023-04-14T18:02:34.658Z,2.00
2023-04-14T18:05:03.513Z,3.53
